createdAt,value
2018-04-13T13:51:52.307Z,2000.00
2018-04-13T13:52:52.134Z,2236.00
2018-04-13T13:53:51.996Z,2208.00
2018-04-13T14:14:31.525Z,2380.00
2018-04-13T14:15:31.332Z,2440.00
2018-04-13T14:16:31.296Z,2608.00
2018-04-13T14:17:31.149Z,2824.00
2018-04-13T14:18:31.108Z,3116.00
2018-04-13T14:19:31.014Z,3136.00
2018-04-13T14:20:31.022Z,2984.00
2018-04-13T14:21:31.235Z,2732.00
2018-04-13T14:22:30.942Z,2568.00
2018-04-13T14:23:30.910Z,2632.00
2018-04-13T14:26:15.409Z,3040.00
2018-04-13T14:27:15.317Z,2968.00
2018-04-13T14:28:15.631Z,2844.00
2018-04-13T14:29:15.288Z,2768.00
2018-04-13T14:30:15.251Z,2684.00
2018-04-13T14:31:15.205Z,2804.00
2018-04-13T14:32:15.110Z,3088.00
2018-04-13T14:33:15.121Z,3384.00
2018-04-13T14:34:15.086Z,3428.00
2018-04-13T14:35:15.291Z,3276.00
2018-04-13T14:36:14.998Z,3116.00
2018-04-13T14:37:14.920Z,2972.00
2018-04-13T14:38:14.921Z,2892.00
2018-04-13T14:39:14.874Z,3000.00
2018-04-13T14:40:14.783Z,3156.00
2018-04-13T14:41:14.798Z,3200.00
2018-04-13T14:42:15.005Z,3196.00
2018-04-13T14:43:14.710Z,3100.00
2018-04-13T14:44:14.670Z,2992.00
2018-04-13T14:45:14.577Z,2952.00
2018-04-13T14:46:14.588Z,2928.00
2018-04-13T14:47:14.495Z,3056.00
2018-04-13T14:48:14.610Z,3340.00
2018-04-13T14:49:14.817Z,3696.00
2018-04-13T14:50:14.371Z,4152.00
2018-04-13T14:51:14.379Z,4752.00
2018-04-13T14:52:14.337Z,5480.00
2018-04-13T14:53:14.296Z,6328.00
2018-04-13T14:54:14.261Z,7148.00
2018-04-13T14:55:14.163Z,7596.00
2018-04-13T14:56:14.522Z,7652.00
2018-04-13T14:57:14.134Z,7620.00
2018-04-13T14:58:14.091Z,7724.00
2018-04-13T14:59:14.101Z,7856.00
2018-04-13T15:00:13.958Z,8032.00
2018-04-13T15:01:14.067Z,8128.00
2018-04-13T15:02:14.233Z,8260.00
2018-04-13T15:03:13.885Z,8288.00
2018-04-13T15:04:13.848Z,8104.00
2018-04-13T15:05:13.755Z,7756.00
2018-04-13T15:06:13.764Z,8036.00
2018-04-13T15:07:13.726Z,8912.00
2018-04-13T15:08:14.034Z,9976.00
2018-04-13T15:09:13.640Z,10792.00
2018-04-13T15:10:13.557Z,11352.00
2018-04-13T15:11:13.616Z,11684.00
2018-04-13T15:12:13.560Z,11728.00
2018-04-13T15:13:13.478Z,11604.00
2018-04-13T15:14:13.777Z,11340.00
2018-04-13T15:15:13.345Z,10912.00
2018-04-13T15:16:13.356Z,10544.00
2018-04-13T15:17:13.316Z,10276.00
2018-04-13T15:18:13.274Z,10316.00
2018-04-13T15:19:13.335Z,10680.00
2018-04-13T15:20:13.447Z,10840.00
2018-04-13T15:21:13.153Z,10760.00
2018-04-13T15:22:13.212Z,10640.00
2018-04-13T15:23:13.071Z,10372.00
2018-04-13T15:24:13.032Z,9892.00
2018-04-13T15:25:12.941Z,9104.00
2018-04-13T15:26:13.302Z,8388.00
2018-04-13T15:27:12.911Z,7884.00
2018-04-13T15:28:12.820Z,7272.00
2018-04-13T15:29:12.829Z,6600.00
2018-04-13T15:30:12.738Z,6088.00
2018-04-13T15:31:12.752Z,6188.00
2018-04-13T15:32:12.957Z,6196.00
2018-04-13T15:33:12.680Z,6016.00
2018-04-13T15:34:12.651Z,5828.00
2018-04-13T15:35:12.537Z,5576.00
2018-04-13T15:36:12.548Z,5476.00
2018-04-13T15:37:12.507Z,5284.00
2018-04-13T15:38:12.518Z,4972.00
2018-04-13T15:39:12.677Z,4856.00
2018-04-13T15:40:12.352Z,5216.00
2018-04-13T15:41:12.447Z,6116.00
2018-04-13T15:42:12.309Z,7048.00
2018-04-13T15:43:12.266Z,7736.00
2018-04-13T15:44:12.223Z,7768.00
2018-04-13T15:45:12.145Z,7408.00
2018-04-13T15:46:12.401Z,7084.00
2018-04-13T15:47:12.105Z,6976.00
2018-04-13T15:48:12.014Z,6956.00
2018-04-13T15:49:12.030Z,6780.00
2018-04-13T15:50:11.935Z,6472.00
2018-04-13T15:51:12.002Z,6104.00
2018-04-13T15:52:11.952Z,5812.00
2018-04-13T15:53:12.112Z,5620.00
2018-04-13T15:54:11.822Z,5312.00
2018-04-13T15:55:11.731Z,5060.00
2018-04-13T15:56:11.744Z,4876.00
2018-04-13T15:57:11.700Z,4672.00
2018-04-13T15:58:11.610Z,4464.00
2018-04-13T15:59:11.668Z,4276.00
2018-04-13T16:00:11.828Z,4112.00
2018-04-13T16:01:11.543Z,4024.00
2018-04-13T16:02:11.501Z,4020.00
2018-04-13T16:03:11.411Z,4096.00
2018-04-13T16:04:11.415Z,4272.00
2018-04-13T16:05:11.381Z,4552.00
2018-04-13T16:06:11.337Z,5040.00
2018-04-13T16:07:11.644Z,5724.00
2018-04-13T16:08:11.205Z,6504.00
2018-04-13T16:09:11.216Z,7092.00
2018-04-13T16:10:11.176Z,7484.00
2018-04-13T16:11:11.132Z,7464.00
2018-04-13T16:12:11.114Z,7376.00
2018-04-13T16:13:11.000Z,7396.00
2018-04-13T16:14:11.314Z,7372.00
2018-04-13T16:15:10.975Z,7336.00
2018-04-13T16:16:10.930Z,7284.00
2018-04-13T16:17:10.892Z,7128.00
2018-04-13T16:18:10.800Z,7048.00
2018-04-13T16:19:10.859Z,6936.00
2018-04-13T16:20:11.174Z,6752.00
2018-04-13T16:21:10.735Z,6568.00
2018-04-13T16:22:10.699Z,6404.00
2018-04-13T16:23:10.597Z,6200.00
2018-04-13T16:24:10.608Z,6036.00
2018-04-13T16:25:10.617Z,5872.00
2018-04-13T16:26:10.829Z,5780.00
2018-04-13T16:27:10.486Z,5736.00
2018-04-13T16:28:10.399Z,5736.00
2018-04-13T16:29:10.356Z,5780.00
2018-04-13T16:30:10.418Z,5800.00
2018-04-13T16:31:10.282Z,5776.00
2018-04-13T16:32:10.533Z,5624.00
2018-04-13T16:33:10.197Z,5456.00
2018-04-13T16:34:10.213Z,5272.00
2018-04-13T16:35:10.166Z,5212.00
2018-04-13T16:36:10.074Z,5116.00
2018-04-13T16:37:10.133Z,5028.00
2018-04-13T16:38:10.291Z,5080.00
2018-04-13T16:39:10.000Z,5260.00
2018-04-13T16:40:09.961Z,5488.00
2018-04-13T16:41:09.869Z,5752.00
2018-04-13T16:42:09.885Z,5584.00
2018-04-13T16:43:09.803Z,5444.00
2018-04-13T16:44:10.056Z,5216.00
2018-04-13T16:45:09.759Z,4876.00
2018-04-13T16:46:09.723Z,3960.00
2018-04-13T16:47:09.681Z,3072.00
2018-04-13T16:48:09.588Z,2768.00
2018-04-13T16:49:09.600Z,2584.00
2018-04-13T16:50:09.698Z,2124.00
2018-04-13T16:51:09.872Z,1840.00
2018-04-13T16:52:09.577Z,1948.00
2018-04-13T16:53:09.385Z,2012.00
2018-04-13T16:54:09.396Z,1996.00
2018-04-13T16:55:09.356Z,1980.00
2018-04-13T16:56:09.320Z,1820.00
